createdAt,value
2023-05-03T00:01:32.065Z,89.84
2023-05-03T00:03:58.537Z,89.97
2023-05-03T00:06:25.486Z,90.29
2023-05-03T00:08:52.011Z,90.68
2023-05-03T00:11:18.369Z,90.82
2023-05-03T00:13:44.795Z,90.89
2023-05-03T00:16:11.192Z,91.29
2023-05-03T00:18:37.612Z,91.94
2023-05-03T00:21:04.284Z,92.07
2023-05-03T00:23:30.736Z,92.21
2023-05-03T00:25:58.547Z,92.45
2023-05-03T00:28:25.985Z,92.49
2023-05-03T00:30:53.272Z,92.56
2023-05-03T00:33:20.082Z,92.48
2023-05-03T00:35:46.595Z,92.39
2023-05-03T00:38:15.988Z,92.87
2023-05-03T00:40:43.126Z,93.03
2023-05-03T00:43:12.417Z,93.32
2023-05-03T00:45:38.861Z,93.46
2023-05-03T00:48:06.182Z,93.41
2023-05-03T00:50:32.682Z,93.46
2023-05-03T00:52:59.201Z,93.83
2023-05-03T00:55:29.374Z,94.41
2023-05-03T00:57:55.927Z,94.47
2023-05-03T01:00:23.289Z,94.88
2023-05-03T01:02:49.804Z,94.93
2023-05-03T01:05:16.940Z,94.37
2023-05-03T01:08:18.339Z,94.58
2023-05-03T01:11:07.440Z,94.45
2023-05-03T01:13:36.778Z,94.27
2023-05-03T01:16:14.241Z,93.80
2023-05-03T01:18:49.163Z,94.27
2023-05-03T01:21:18.450Z,94.65
2023-05-03T01:24:03.637Z,94.80
2023-05-03T01:26:30.142Z,95.03
2023-05-03T01:28:56.682Z,95.29
2023-05-03T01:31:44.472Z,95.75
2023-05-03T01:34:16.899Z,95.89
2023-05-03T01:36:45.090Z,96.17
2023-05-03T01:39:20.952Z,96.12
2023-05-03T01:41:50.837Z,96.40
2023-05-03T01:44:19.840Z,96.38
2023-05-03T01:46:47.284Z,96.49
2023-05-03T01:49:13.981Z,96.62
2023-05-03T01:51:40.397Z,96.76
2023-05-03T01:54:06.850Z,96.91
2023-05-03T01:56:35.590Z,96.91
2023-05-03T01:59:02.834Z,97.22
2023-05-03T02:01:29.318Z,97.63
2023-05-03T02:03:55.740Z,97.50
2023-05-03T02:06:23.796Z,97.97
2023-05-03T02:08:50.332Z,97.94
2023-05-03T02:11:16.760Z,98.46
2023-05-03T02:13:43.292Z,98.65
2023-05-03T02:16:09.845Z,98.48
2023-05-03T02:18:36.757Z,98.80
2023-05-03T02:21:04.696Z,98.96
2023-05-03T02:23:31.309Z,99.22
2023-05-03T02:25:58.045Z,98.93
2023-05-03T02:28:24.425Z,99.09
2023-05-03T02:30:50.987Z,99.24
2023-05-03T02:33:17.480Z,99.01
2023-05-03T02:35:44.224Z,99.31
2023-05-03T02:38:11.037Z,99.59
2023-05-03T02:40:37.464Z,99.67
2023-05-03T02:43:04.888Z,99.44
2023-05-03T02:45:31.734Z,99.62
2023-05-03T02:47:59.279Z,99.63
2023-05-03T02:50:27.253Z,99.74
2023-05-03T02:52:53.713Z,99.97
2023-05-03T02:55:20.765Z,99.99
2023-05-03T02:57:47.869Z,100.00
2023-05-03T03:00:18.282Z,100.00
2023-05-03T03:02:44.794Z,100.00
2023-05-03T03:05:12.149Z,100.00
2023-05-03T03:07:40.384Z,100.00
2023-05-03T03:10:08.149Z,100.00
2023-05-03T03:12:36.307Z,100.00
2023-05-03T03:15:06.317Z,100.00
2023-05-03T03:17:33.510Z,100.00
2023-05-03T03:20:02.002Z,100.00
2023-05-03T03:22:28.788Z,100.00
2023-05-03T03:24:55.230Z,100.00
2023-05-03T03:27:23.076Z,100.00
2023-05-03T03:29:49.820Z,100.00
2023-05-03T03:32:17.172Z,100.00
2023-05-03T03:34:44.023Z,100.00
2023-05-03T03:37:11.097Z,100.00
2023-05-03T03:39:40.798Z,100.00
2023-05-03T03:42:09.396Z,100.00
2023-05-03T03:44:35.857Z,100.00
2023-05-03T03:47:02.753Z,100.00
2023-05-03T03:49:29.178Z,100.00
2023-05-03T03:51:56.031Z,100.00
2023-05-03T03:54:22.425Z,100.00
2023-05-03T03:56:51.088Z,100.00
2023-05-03T03:59:17.913Z,100.00
2023-05-03T04:01:45.914Z,100.00
2023-05-03T04:04:13.204Z,100.00
2023-05-03T04:06:40.931Z,100.00
2023-05-03T04:09:11.211Z,100.00
2023-05-03T04:11:38.345Z,100.00
2023-05-03T04:14:05.592Z,100.00
2023-05-03T04:16:32.755Z,100.00
2023-05-03T04:19:01.710Z,100.00
2023-05-03T04:21:28.946Z,100.00
2023-05-03T04:23:56.765Z,100.00
2023-05-03T04:26:31.661Z,100.00
2023-05-03T04:29:06.110Z,100.00
2023-05-03T04:31:33.313Z,100.00
2023-05-03T04:34:00.948Z,100.00
2023-05-03T04:36:29.751Z,100.00
2023-05-03T04:38:57.816Z,100.00
2023-05-03T04:41:25.457Z,100.00
2023-05-03T04:43:53.096Z,100.00
2023-05-03T04:46:20.307Z,100.00
2023-05-03T04:48:47.405Z,100.00
2023-05-03T04:51:14.370Z,100.00
2023-05-03T04:53:45.193Z,100.00
2023-05-03T04:56:15.911Z,100.00
2023-05-03T04:58:44.454Z,100.00
2023-05-03T05:01:12.172Z,100.00
2023-05-03T05:03:38.765Z,100.00
2023-05-03T05:06:12.793Z,100.00
2023-05-03T05:08:41.542Z,100.00
2023-05-03T05:11:10.772Z,100.00
2023-05-03T05:13:39.048Z,100.00
2023-05-03T05:16:06.058Z,100.00
2023-05-03T05:18:32.824Z,100.00
2023-05-03T05:21:02.008Z,100.00
2023-05-03T05:23:29.269Z,100.00
2023-05-03T05:26:00.267Z,100.00
2023-05-03T05:28:29.400Z,100.00
2023-05-03T05:30:56.002Z,100.00
2023-05-03T05:33:22.902Z,100.00
2023-05-03T05:35:49.880Z,100.00
2023-05-03T05:38:20.001Z,100.00
2023-05-03T05:40:46.763Z,100.00
2023-05-03T05:43:13.229Z,99.92
2023-05-03T05:45:43.046Z,99.84
2023-05-03T05:48:09.569Z,99.29
2023-05-03T05:50:36.520Z,98.73
2023-05-03T05:53:09.608Z,98.75
2023-05-03T05:55:39.907Z,98.34
2023-05-03T05:58:07.258Z,98.13
2023-05-03T06:00:42.314Z,97.86
2023-05-03T06:03:09.294Z,97.56
2023-05-03T06:05:36.150Z,97.27
2023-05-03T06:08:02.733Z,96.58
2023-05-03T06:10:29.179Z,96.34
2023-05-03T06:12:57.039Z,96.24
2023-05-03T06:15:26.142Z,95.53
2023-05-03T06:17:54.137Z,95.24
2023-05-03T06:20:20.798Z,94.64
2023-05-03T06:22:48.495Z,94.33
2023-05-03T06:25:17.667Z,93.51
2023-05-03T06:27:47.675Z,93.17
2023-05-03T06:30:15.168Z,92.75
2023-05-03T06:32:43.639Z,92.52
2023-05-03T06:35:12.516Z,92.25
2023-05-03T06:37:40.433Z,92.20
2023-05-03T06:40:07.690Z,91.16
2023-05-03T06:42:36.238Z,90.84
2023-05-03T06:45:08.132Z,89.74
2023-05-03T06:47:37.203Z,88.97
2023-05-03T06:50:04.548Z,88.60
2023-05-03T06:52:31.860Z,87.33
2023-05-03T06:54:58.678Z,86.79
2023-05-03T06:57:27.471Z,86.30
2023-05-03T06:59:55.214Z,85.36
2023-05-03T07:02:21.647Z,84.79
2023-05-03T07:04:48.121Z,84.35
2023-05-03T07:07:15.808Z,84.61
2023-05-03T07:09:43.538Z,84.66
2023-05-03T07:12:11.183Z,84.33
2023-05-03T07:14:39.171Z,84.54
2023-05-03T07:17:05.654Z,83.13
2023-05-03T07:19:32.174Z,82.01
2023-05-03T07:21:58.910Z,81.48
2023-05-03T07:24:26.256Z,80.94
2023-05-03T07:26:53.558Z,80.56
2023-05-03T07:29:20.521Z,79.17
2023-05-03T07:31:47.538Z,78.59
2023-05-03T07:34:14.183Z,78.55
2023-05-03T07:36:40.690Z,78.01
2023-05-03T07:39:07.777Z,78.23
2023-05-03T07:41:34.180Z,78.78
2023-05-03T07:44:00.777Z,77.49
2023-05-03T07:46:27.298Z,76.74
2023-05-03T07:48:53.898Z,74.29
2023-05-03T07:51:21.128Z,72.77
2023-05-03T07:53:47.596Z,71.94
2023-05-03T07:56:14.022Z,70.31
2023-05-03T07:58:41.062Z,73.43
2023-05-03T08:01:08.245Z,70.73
2023-05-03T08:03:35.056Z,70.27
2023-05-03T08:06:01.748Z,69.44
2023-05-03T08:08:28.412Z,68.50
2023-05-03T08:10:54.931Z,68.05
2023-05-03T08:13:22.538Z,68.23
2023-05-03T08:15:50.112Z,68.32
2023-05-03T08:18:16.752Z,68.46
2023-05-03T08:20:44.831Z,66.30
2023-05-03T08:23:11.282Z,67.47
2023-05-03T08:25:37.833Z,67.69
2023-05-03T08:28:04.467Z,68.12
2023-05-03T08:30:31.361Z,67.99
2023-05-03T08:32:57.926Z,67.53
2023-05-03T08:35:24.387Z,65.74
2023-05-03T08:37:50.843Z,63.83
2023-05-03T08:40:17.696Z,64.26
2023-05-03T08:42:45.546Z,64.43
2023-05-03T08:45:15.583Z,63.20
2023-05-03T08:47:45.116Z,63.79
2023-05-03T08:50:13.173Z,63.75
2023-05-03T08:52:41.522Z,65.02
2023-05-03T08:55:09.259Z,64.69
2023-05-03T08:57:36.079Z,65.66
2023-05-03T09:00:06.483Z,66.39
2023-05-03T09:02:34.916Z,62.14
2023-05-03T09:05:01.868Z,64.85
2023-05-03T09:07:28.359Z,61.89
2023-05-03T09:09:54.908Z,64.55
2023-05-03T09:12:38.425Z,64.39
2023-05-03T09:15:06.376Z,64.78
2023-05-03T09:17:33.394Z,61.07
2023-05-03T09:20:00.468Z,60.46
2023-05-03T09:22:30.862Z,60.45
2023-05-03T09:24:59.559Z,61.78
2023-05-03T09:27:27.017Z,63.22
2023-05-03T09:29:54.520Z,63.61
2023-05-03T09:32:22.753Z,61.24
2023-05-03T09:34:49.195Z,60.50
2023-05-03T09:37:15.902Z,58.30
2023-05-03T09:39:45.166Z,60.11
2023-05-03T09:42:12.888Z,59.02
2023-05-03T09:44:53.710Z,58.16
2023-05-03T09:47:21.509Z,56.99
2023-05-03T09:49:48.034Z,56.98
2023-05-03T09:52:14.602Z,55.60
2023-05-03T09:54:42.300Z,57.13
2023-05-03T09:57:09.194Z,57.11
2023-05-03T09:59:37.885Z,57.05
2023-05-03T10:02:07.338Z,56.16
2023-05-03T10:04:46.839Z,55.68
2023-05-03T10:07:17.696Z,56.46
2023-05-03T10:09:46.696Z,55.83
2023-05-03T10:12:16.656Z,55.43
2023-05-03T10:14:45.474Z,54.22
2023-05-03T10:17:32.019Z,53.80
2023-05-03T10:20:29.934Z,53.52
2023-05-03T10:23:06.042Z,52.89
2023-05-03T10:25:34.533Z,54.40
2023-05-03T10:28:05.894Z,53.56
2023-05-03T10:30:34.542Z,51.50
2023-05-03T10:33:13.292Z,51.63
2023-05-03T10:35:42.046Z,51.24
2023-05-03T10:38:16.354Z,50.50
2023-05-03T10:40:44.334Z,51.53
2023-05-03T10:43:32.151Z,48.68
2023-05-03T10:45:58.840Z,49.81
2023-05-03T10:48:26.593Z,49.46
2023-05-03T10:50:53.110Z,48.77
2023-05-03T10:53:32.383Z,49.52
2023-05-03T10:56:16.774Z,47.41
2023-05-03T10:58:45.890Z,48.92
2023-05-03T11:01:15.289Z,45.62
2023-05-03T11:03:50.966Z,47.12
2023-05-03T11:06:49.414Z,43.16
2023-05-03T11:09:16.505Z,43.34
2023-05-03T11:11:43.517Z,44.00
2023-05-03T11:14:11.669Z,43.44
2023-05-03T11:16:47.404Z,42.97
2023-05-03T11:19:15.790Z,41.71
2023-05-03T11:21:43.333Z,42.08
2023-05-03T11:24:10.085Z,41.00
2023-05-03T11:26:40.389Z,40.19
2023-05-03T11:29:10.578Z,38.51
2023-05-03T11:31:37.168Z,35.79
2023-05-03T11:34:03.968Z,34.71
2023-05-03T11:36:31.040Z,34.44
2023-05-03T11:38:57.706Z,32.91
2023-05-03T11:41:24.337Z,32.09
2023-05-03T11:44:00.643Z,32.21
2023-05-03T11:46:35.065Z,31.49
2023-05-03T11:49:03.001Z,30.56
2023-05-03T11:51:30.132Z,30.54
2023-05-03T11:53:57.253Z,31.41
2023-05-03T11:56:23.979Z,29.27
2023-05-03T11:58:57.576Z,28.88
2023-05-03T12:01:26.277Z,28.80
2023-05-03T12:04:05.474Z,29.13
2023-05-03T12:06:35.194Z,28.18
2023-05-03T12:09:03.875Z,30.24
2023-05-03T12:11:32.746Z,32.44
2023-05-03T12:14:02.169Z,29.84
2023-05-03T12:16:46.600Z,27.64
2023-05-03T12:19:24.191Z,27.14
2023-05-03T12:22:04.874Z,27.29
2023-05-03T12:24:39.381Z,26.32
2023-05-03T12:27:08.196Z,26.66
2023-05-03T12:29:35.686Z,26.07
2023-05-03T12:32:04.173Z,25.54
2023-05-03T12:34:35.815Z,25.29
2023-05-03T12:37:04.646Z,25.97
2023-05-03T12:39:33.069Z,24.81
2023-05-03T12:44:33.067Z,24.75
2023-05-03T12:47:01.601Z,24.66
2023-05-03T12:49:28.613Z,24.54
2023-05-03T12:52:18.779Z,24.50
2023-05-03T12:54:48.784Z,24.44
2023-05-03T12:57:22.640Z,24.31
2023-05-03T12:59:53.937Z,24.16
2023-05-03T13:05:11.529Z,24.17
2023-05-03T13:07:43.152Z,23.70
2023-05-03T13:12:40.468Z,23.64
2023-05-03T13:15:08.335Z,23.71
2023-05-03T13:17:34.956Z,23.27
2023-05-03T13:20:01.422Z,23.61
2023-05-03T13:22:28.599Z,23.46
2023-05-03T13:24:55.977Z,24.04
2023-05-03T13:27:22.924Z,23.65
2023-05-03T13:29:49.762Z,23.20
2023-05-03T13:32:16.656Z,23.52
2023-05-03T13:34:43.330Z,23.29
2023-05-03T13:37:11.467Z,23.41
2023-05-03T13:39:38.137Z,23.15
2023-05-03T13:42:04.638Z,23.32
2023-05-03T13:44:31.134Z,23.15
2023-05-03T13:46:57.557Z,22.83
2023-05-03T13:49:25.458Z,22.79
2023-05-03T13:51:51.868Z,23.07
2023-05-03T13:54:18.412Z,23.06
2023-05-03T13:56:44.892Z,22.73
2023-05-03T13:59:13.671Z,23.16
2023-05-03T14:01:41.082Z,22.52
2023-05-03T14:04:07.621Z,22.23
2023-05-03T14:06:34.401Z,22.70
2023-05-03T14:09:01.703Z,22.46
2023-05-03T14:11:30.421Z,22.57
2023-05-03T14:13:58.489Z,22.52
2023-05-03T14:16:40.007Z,22.89
2023-05-03T14:19:07.832Z,22.96
2023-05-03T14:21:34.690Z,22.73
2023-05-03T14:24:01.590Z,22.52
2023-05-03T14:26:29.376Z,22.58
2023-05-03T14:28:56.118Z,22.64
2023-05-03T14:31:22.681Z,22.45
2023-05-03T14:33:49.158Z,22.25
2023-05-03T14:36:15.909Z,22.35
2023-05-03T14:38:42.461Z,22.52
2023-05-03T14:41:09.199Z,22.99
2023-05-03T14:43:35.667Z,22.92
2023-05-03T14:46:02.664Z,22.73
2023-05-03T14:48:29.070Z,22.89
2023-05-03T14:50:56.389Z,23.02
2023-05-03T14:53:23.805Z,22.70
2023-05-03T14:55:50.338Z,22.71
2023-05-03T14:58:17.196Z,22.76
2023-05-03T15:00:43.794Z,23.29
2023-05-03T15:03:12.190Z,23.04
2023-05-03T15:05:43.805Z,23.23
2023-05-03T15:08:10.644Z,23.37
2023-05-03T15:10:41.331Z,23.76
2023-05-03T15:13:09.494Z,23.93
2023-05-03T15:15:37.107Z,23.89
2023-05-03T15:18:03.725Z,23.81
2023-05-03T15:20:30.156Z,23.86
2023-05-03T15:22:56.635Z,24.08
2023-05-03T15:25:23.068Z,24.21
2023-05-03T15:27:51.245Z,24.34
2023-05-03T15:30:18.022Z,24.57
2023-05-03T15:32:44.776Z,24.64
2023-05-03T15:35:11.877Z,24.76
2023-05-03T15:37:38.416Z,25.11
2023-05-03T15:40:05.838Z,25.40
2023-05-03T15:42:32.423Z,25.54
2023-05-03T15:44:58.903Z,25.37
2023-05-03T15:47:26.379Z,25.67
2023-05-03T15:49:52.960Z,25.95
2023-05-03T15:52:19.430Z,25.69
2023-05-03T15:54:46.576Z,26.11
2023-05-03T15:57:13.755Z,26.23
2023-05-03T15:59:40.644Z,26.46
2023-05-03T16:02:07.502Z,26.20
2023-05-03T16:04:37.000Z,26.42
2023-05-03T16:07:04.504Z,26.18
2023-05-03T16:09:31.265Z,26.16
2023-05-03T16:11:59.021Z,26.39
2023-05-03T16:14:26.345Z,27.02
2023-05-03T16:16:54.150Z,26.96
2023-05-03T16:19:21.421Z,27.19
2023-05-03T16:21:48.166Z,27.50
2023-05-03T16:24:14.866Z,27.53
2023-05-03T16:26:41.618Z,27.56
2023-05-03T16:29:08.371Z,27.41
2023-05-03T16:31:34.880Z,28.03
2023-05-03T16:34:01.792Z,28.92
2023-05-03T16:36:28.229Z,29.77
2023-05-03T16:38:54.745Z,28.59
2023-05-03T16:41:21.292Z,28.29
2023-05-03T16:43:47.955Z,28.50
2023-05-03T16:46:14.482Z,28.60
2023-05-03T16:48:41.344Z,28.78
2023-05-03T16:51:07.787Z,28.82
2023-05-03T16:53:34.283Z,29.25
2023-05-03T16:56:00.897Z,29.46
2023-05-03T16:58:27.351Z,29.68
2023-05-03T17:00:53.847Z,29.65
2023-05-03T17:03:20.433Z,29.84
2023-05-03T17:05:46.964Z,29.67
2023-05-03T17:08:13.580Z,30.00
2023-05-03T17:10:40.246Z,30.28
2023-05-03T17:13:09.333Z,30.56
2023-05-03T17:15:36.999Z,30.94
2023-05-03T17:18:04.890Z,30.87
2023-05-03T17:20:32.808Z,31.38
2023-05-03T17:22:59.275Z,31.85
2023-05-03T17:25:25.915Z,31.86
2023-05-03T17:27:52.822Z,32.00
2023-05-03T17:30:21.138Z,32.07
2023-05-03T17:32:48.350Z,32.39
2023-05-03T17:35:14.905Z,32.92
2023-05-03T17:37:41.595Z,32.53
2023-05-03T17:40:08.745Z,32.38
2023-05-03T17:42:35.434Z,33.03
2023-05-03T17:45:02.732Z,33.06
2023-05-03T17:47:29.294Z,32.90
2023-05-03T17:49:56.520Z,32.96
2023-05-03T17:52:23.322Z,33.00
2023-05-03T17:54:52.601Z,33.08
2023-05-03T17:57:21.909Z,33.36
2023-05-03T17:59:48.689Z,33.83
2023-05-03T18:02:15.239Z,34.00
2023-05-03T18:04:41.671Z,34.21
2023-05-03T18:07:08.233Z,34.63
2023-05-03T18:09:34.667Z,34.67
2023-05-03T18:12:03.344Z,34.75
2023-05-03T18:14:30.230Z,34.40
2023-05-03T18:16:56.640Z,34.84
2023-05-03T18:19:23.742Z,35.01
2023-05-03T18:21:50.318Z,35.33
2023-05-03T18:24:16.891Z,35.41
2023-05-03T18:26:43.320Z,35.22
2023-05-03T18:29:09.967Z,36.04
2023-05-03T18:31:36.527Z,36.30
2023-05-03T18:34:03.111Z,36.42
2023-05-03T18:36:29.567Z,36.12
2023-05-03T18:38:56.585Z,37.19
2023-05-03T18:41:23.049Z,38.12
2023-05-03T18:43:50.350Z,37.70
2023-05-03T18:46:18.568Z,38.12
2023-05-03T18:48:45.936Z,37.91
2023-05-03T18:51:12.540Z,38.21
2023-05-03T18:53:38.990Z,38.25
2023-05-03T18:56:05.527Z,38.62
2023-05-03T18:58:32.481Z,39.54
2023-05-03T19:01:00.206Z,40.24
2023-05-03T19:03:30.210Z,40.34
2023-05-03T19:06:07.487Z,39.81
2023-05-03T19:08:34.454Z,40.13
2023-05-03T19:11:11.131Z,40.70
2023-05-03T19:13:37.596Z,41.01
2023-05-03T19:16:04.221Z,41.17
2023-05-03T19:18:31.809Z,41.38
2023-05-03T19:20:59.356Z,41.81
2023-05-03T19:23:25.916Z,42.23
2023-05-03T19:25:52.282Z,44.20
2023-05-03T19:28:18.784Z,43.49
2023-05-03T19:30:45.591Z,43.62
2023-05-03T19:33:12.232Z,42.75
2023-05-03T19:35:42.434Z,42.46
2023-05-03T19:38:08.924Z,42.56
2023-05-03T19:40:36.568Z,43.05
2023-05-03T19:43:03.002Z,43.72
2023-05-03T19:45:29.980Z,43.89
2023-05-03T19:47:56.578Z,44.25
2023-05-03T19:50:23.094Z,44.35
2023-05-03T19:52:53.371Z,44.28
2023-05-03T19:55:20.288Z,44.45
2023-05-03T19:57:47.081Z,44.60
2023-05-03T20:00:16.304Z,44.72
2023-05-03T20:02:42.970Z,44.44
2023-05-03T20:05:09.537Z,44.65
2023-05-03T20:07:36.035Z,44.35
2023-05-03T20:10:02.818Z,44.63
2023-05-03T20:12:29.628Z,45.09
2023-05-03T20:14:56.044Z,45.47
2023-05-03T20:17:22.485Z,46.28
2023-05-03T20:19:49.908Z,45.87
2023-05-03T20:22:17.019Z,45.71
2023-05-03T20:24:43.669Z,45.93
2023-05-03T20:27:10.224Z,46.50
2023-05-03T20:29:36.598Z,46.01
2023-05-03T20:32:03.590Z,46.32
2023-05-03T20:34:30.239Z,47.25
2023-05-03T20:36:57.109Z,46.80
2023-05-03T20:39:23.988Z,47.02
2023-05-03T20:41:50.456Z,47.22
2023-05-03T20:44:16.874Z,47.82
2023-05-03T20:46:43.273Z,47.88
2023-05-03T20:49:10.372Z,47.82
2023-05-03T20:51:37.471Z,48.29
2023-05-03T20:54:04.466Z,48.36
2023-05-03T20:56:32.398Z,48.46
2023-05-03T20:58:58.834Z,48.91
2023-05-03T21:01:25.290Z,48.79
2023-05-03T21:03:51.979Z,48.65
2023-05-03T21:06:18.474Z,48.41
2023-05-03T21:08:44.888Z,48.26
2023-05-03T21:11:11.399Z,48.82
2023-05-03T21:13:38.387Z,49.54
2023-05-03T21:16:07.713Z,49.96
2023-05-03T21:18:34.324Z,49.85
2023-05-03T21:21:00.815Z,49.99
2023-05-03T21:23:27.324Z,49.80
2023-05-03T21:25:56.194Z,49.59
2023-05-03T21:28:23.297Z,50.99
2023-05-03T21:30:49.826Z,50.12
2023-05-03T21:33:16.648Z,50.31
2023-05-03T21:35:43.465Z,50.91
2023-05-03T21:38:09.914Z,51.96
2023-05-03T21:40:36.700Z,51.36
2023-05-03T21:43:04.212Z,53.24
2023-05-03T21:45:30.625Z,54.48
2023-05-03T21:47:57.082Z,53.66
2023-05-03T21:50:23.675Z,53.58
2023-05-03T21:52:50.095Z,54.23
2023-05-03T21:55:16.501Z,54.04
2023-05-03T21:57:43.268Z,54.79
2023-05-03T22:00:15.059Z,54.44
2023-05-03T22:02:41.631Z,54.51
2023-05-03T22:05:09.074Z,54.36
2023-05-03T22:07:35.541Z,54.51
2023-05-03T22:10:02.558Z,54.07
2023-05-03T22:12:29.437Z,54.55
2023-05-03T22:14:55.909Z,54.95
2023-05-03T22:17:22.807Z,55.54
2023-05-03T22:19:49.258Z,55.89
2023-05-03T22:22:15.969Z,55.24
2023-05-03T22:24:42.435Z,56.15
2023-05-03T22:27:08.829Z,56.23
2023-05-03T22:29:35.230Z,56.41
2023-05-03T22:32:01.738Z,55.58
2023-05-03T22:34:28.215Z,55.14
2023-05-03T22:36:54.683Z,55.54
2023-05-03T22:39:21.137Z,56.18
2023-05-03T22:41:47.510Z,57.62
2023-05-03T22:44:14.196Z,56.90
2023-05-03T22:46:40.583Z,57.51
2023-05-03T22:49:07.348Z,57.21
2023-05-03T22:51:33.795Z,57.36
2023-05-03T22:54:00.436Z,57.62
2023-05-03T22:56:27.259Z,57.68
2023-05-03T22:58:53.947Z,58.99
2023-05-03T23:01:20.616Z,58.35
2023-05-03T23:03:47.176Z,58.76
2023-05-03T23:06:14.351Z,58.51
2023-05-03T23:08:41.121Z,58.56
2023-05-03T23:11:07.515Z,60.12
2023-05-03T23:13:34.063Z,59.59
2023-05-03T23:16:01.323Z,59.81
2023-05-03T23:18:28.028Z,60.89
2023-05-03T23:20:54.420Z,61.35
2023-05-03T23:23:20.944Z,61.02
2023-05-03T23:25:47.368Z,61.69
2023-05-03T23:28:13.794Z,61.46
2023-05-03T23:30:45.145Z,61.13
2023-05-03T23:33:12.389Z,60.80
2023-05-03T23:35:40.786Z,61.55
2023-05-03T23:38:07.249Z,61.14
2023-05-03T23:40:33.808Z,61.55
2023-05-03T23:43:00.191Z,62.52
2023-05-03T23:45:27.225Z,63.44
2023-05-03T23:47:54.281Z,63.77
2023-05-03T23:50:20.989Z,63.72
2023-05-03T23:52:47.676Z,64.34
2023-05-03T23:55:14.174Z,63.52
2023-05-03T23:57:40.833Z,63.38
